Terminal Aerodrome Forecast
Issued by NWS San Angelo, TX

Home | Current Version | Previous Version | Text Only | Print | Product List | Glossary On
Versions: 1 2 3 4 5 6 7 8 9 10 11 12 13 14 15 16 17 18 19 20
000
FTUS44 KSJT 290558
TAFABI
TAF
KABI 290558Z 2906/3006 19011G20KT P6SM VCSH BKN035
     FM290700 20012G18KT P6SM SCT035 BKN120
     FM291500 24013G19KT P6SM SKC=

USA.gov is the U.S. government's official web portal to all federal, state and local government web resources and services.